Time;durP1;ratioP1;P1;durP2;ratioP2;P2;SDS_P1;SDS_P2;PMS_P1;PMS_P2;Temp;Humidity;BMP_temperature;BMP_pressure;BME280_temperature;BME280_humidity;BME280_pressure;Samples;Min_cycle;Max_cycle;Signal;HPM_P1;HPM_P2
2023/06/11 00:02:25;;;;;;;5.50;5.00;;;;;;;19.06;100.00;99451.98;108625;1251;73791;-70
2023/06/11 00:04:54;;;;;;;5.50;4.60;;;;;;;19.13;100.00;99449.82;108690;1251;69579;-69
2023/06/11 00:07:22;;;;;;;5.30;4.80;;;;;;;19.08;100.00;99443.47;108490;1252;71451;-69
2023/06/11 00:09:50;;;;;;;7.90;5.20;;;;;;;19.11;100.00;99449.98;108570;1251;61491;-69
2023/06/11 00:12:17;;;;;;;5.40;4.90;;;;;;;19.16;100.00;99449.77;108598;1252;60306;-70
2023/06/11 00:14:45;;;;;;;5.80;5.30;;;;;;;19.18;100.00;99449.89;108591;1252;72613;-70
2023/06/11 00:17:12;;;;;;;6.50;5.60;;;;;;;19.19;100.00;99456.41;108575;1251;69727;-70
2023/06/11 00:19:40;;;;;;;;;;;;;;;19.19;100.00;99454.13;108580;1251;72587;-69
2023/06/11 00:22:08;;;;;;;7.10;5.60;;;;;;;19.14;100.00;99454.88;108645;1251;60545;-71
2023/06/11 00:24:36;;;;;;;5.70;5.20;;;;;;;19.16;100.00;99455.45;108590;1251;59789;-71
2023/06/11 00:27:05;;;;;;;5.90;5.20;;;;;;;19.16;100.00;99452.91;108537;1253;73670;-72
2023/06/11 00:29:33;;;;;;;6.50;5.30;;;;;;;19.16;100.00;99451.86;108382;1252;69285;-70
2023/06/11 00:32:00;;;;;;;;;;;;;;;19.18;100.00;99448.99;108473;1251;72847;-73
2023/06/11 00:34:28;;;;;;;7.50;5.60;;;;;;;19.19;100.00;99448.60;108479;1251;61422;-73
2023/06/11 00:36:55;;;;;;;10.20;5.70;;;;;;;19.20;100.00;99451.75;108452;1252;59707;-73
2023/06/11 00:39:23;;;;;;;7.50;6.10;;;;;;;19.19;100.00;99447.34;108408;1251;72732;-71
2023/06/11 00:41:53;;;;;;;7.50;6.30;;;;;;;19.18;100.00;99450.83;108518;1251;69044;-71
2023/06/11 00:44:21;;;;;;;7.00;6.40;;;;;;;19.17;100.00;99449.48;108606;1251;72511;-73
2023/06/11 00:46:51;;;;;;;7.50;6.00;;;;;;;19.18;100.00;99445.52;108542;1252;61463;-70
2023/06/11 00:49:19;;;;;;;6.50;5.80;;;;;;;19.15;100.00;99448.09;108588;1251;58633;-72
2023/06/11 00:51:47;;;;;;;;;;;;;;;19.22;100.00;99453.34;108500;1253;73705;-71
2023/06/11 00:54:16;;;;;;;7.30;5.80;;;;;;;19.17;100.00;99460.67;108385;1253;68722;-70
2023/06/11 00:56:45;;;;;;;9.00;5.70;;;;;;;19.11;100.00;99467.55;108657;1251;72450;-72
2023/06/11 00:59:13;;;;;;;6.50;6.00;;;;;;;19.05;100.00;99473.73;108616;1251;61395;-74
2023/06/11 01:01:53;;;;;;;5.60;4.70;;;;;;;19.00;100.00;99472.31;108577;1252;60177;-74
2023/06/11 01:04:23;;;;;;;4.60;4.30;;;;;;;18.97;100.00;99476.11;108634;1250;73691;-72
2023/06/11 01:06:54;;;;;;;6.00;4.50;;;;;;;18.89;100.00;99481.55;108594;1251;70052;-72
2023/06/11 01:09:22;;;;;;;8.90;4.80;;;;;;;18.84;100.00;99486.25;108202;1253;72934;-71
2023/06/11 01:11:53;;;;;;;6.30;4.40;;;;;;;18.85;100.00;99485.94;108663;1251;61756;-71
2023/06/11 01:14:21;;;;;;;5.10;4.10;;;;;;;18.86;100.00;99490.85;108649;1251;60274;-72
2023/06/11 01:17:04;;;;;;;7.30;4.90;;;;;;;18.86;100.00;99487.46;108537;1250;73602;-71
2023/06/11 01:19:56;;;;;;;5.20;4.70;;;;;;;18.80;100.00;99494.70;108273;1251;69339;-70
2023/06/11 01:23:04;;;;;;;6.60;4.60;;;;;;;18.75;100.00;99501.64;108416;1251;71260;-72
2023/06/11 01:25:54;;;;;;;4.50;4.10;;;;;;;18.73;100.00;99501.79;108377;1251;61366;-71
2023/06/11 01:28:24;;;;;;;9.20;4.60;;;;;;;18.66;100.00;99508.52;108449;1251;59820;-72
2023/06/11 01:30:52;;;;;;;5.60;4.50;;;;;;;18.60;100.00;99511.35;108257;1253;72656;-71
2023/06/11 01:33:20;;;;;;;5.10;4.10;;;;;;;18.57;100.00;99510.70;108383;1251;67984;-73
2023/06/11 01:35:52;;;;;;;6.60;4.60;;;;;;;18.51;100.00;99511.17;108414;1251;72496;-72
2023/06/11 01:38:21;;;;;;;4.70;4.20;;;;;;;18.41;100.00;99512.79;108414;1251;61376;-74
2023/06/11 01:40:50;;;;;;;6.20;3.90;;;;;;;18.40;100.00;99517.67;108591;1251;59667;-72
2023/06/11 01:43:18;;;;;;;5.30;4.20;;;;;;;18.36;100.00;99516.94;108412;1251;73605;-71
2023/06/11 01:45:46;;;;;;;4.70;4.30;;;;;;;18.34;100.00;99521.02;108632;1252;70099;-72
2023/06/11 01:48:14;;;;;;;4.30;3.90;;;;;;;18.33;100.00;99521.98;108434;1251;73381;-71
2023/06/11 01:50:42;;;;;;;8.60;4.00;;;;;;;18.31;100.00;99523.69;108540;1252;61411;-72
2023/06/11 01:53:10;;;;;;;6.60;4.80;;;;;;;18.36;100.00;99526.86;108602;1251;60741;-72
2023/06/11 01:55:40;;;;;;;6.70;5.30;;;;;;;18.39;100.00;99521.33;108436;1251;73921;-72
2023/06/11 01:58:07;;;;;;;5.50;5.10;;;;;;;18.41;100.00;99520.44;108629;1251;68078;-73
2023/06/11 02:00:35;;;;;;;10.00;5.60;;;;;;;18.37;100.00;99520.25;108540;1252;72373;-74
2023/06/11 02:03:05;;;;;;;6.90;6.20;;;;;;;18.27;100.00;99522.38;108573;1252;61414;-72
2023/06/11 02:05:33;;;;;;;9.00;5.50;;;;;;;18.21;100.00;99522.52;108551;1251;59705;-74
2023/06/11 02:08:01;;;;;;;;;;;;;;;18.15;100.00;99522.77;108609;1251;73872;-75
2023/06/11 02:10:28;;;;;;;;;;;;;;;18.08;100.00;99520.65;108588;1252;69495;-73
2023/06/11 02:12:56;;;;;;;5.40;4.90;;;;;;;18.03;100.00;99522.64;108557;1253;73325;-73
2023/06/11 02:15:23;;;;;;;6.20;5.60;;;;;;;18.01;100.00;99521.73;108602;1251;60349;-73
2023/06/11 02:17:51;;;;;;;6.60;5.90;;;;;;;17.96;100.00;99521.02;108607;1253;59690;-72
2023/06/11 02:20:19;;;;;;;6.20;5.60;;;;;;;17.92;100.00;99518.66;108426;1250;73623;-74
2023/06/11 02:22:47;;;;;;;;;;;;;;;17.87;100.00;99519.94;108599;1252;69090;-73
2023/06/11 02:25:14;;;;;;;8.40;6.50;;;;;;;17.79;100.00;99521.19;108506;1251;72379;-73
2023/06/11 02:27:42;;;;;;;6.90;5.40;;;;;;;17.73;100.00;99519.52;108413;1251;61412;-72
2023/06/11 02:30:11;;;;;;;5.70;4.80;;;;;;;17.69;100.00;99523.17;108446;1251;59671;-76
2023/06/11 02:32:40;;;;;;;5.80;4.20;;;;;;;17.69;100.00;99526.39;108437;1251;73878;-73
2023/06/11 02:35:08;;;;;;;6.90;4.50;;;;;;;17.69;100.00;99522.86;108246;1250;69048;-71
2023/06/11 02:37:36;;;;;;;5.00;4.30;;;;;;;17.65;100.00;99527.89;108432;1251;72351;-76
2023/06/11 02:40:05;;;;;;;4.20;3.90;;;;;;;17.61;100.00;99532.10;108208;1253;61379;-71
2023/06/11 02:42:32;;;;;;;5.50;3.90;;;;;;;17.51;100.00;99535.83;108515;1251;59716;-71
2023/06/11 02:45:00;;;;;;;5.40;3.90;;;;;;;17.60;100.00;99537.68;108600;1250;74539;-71
2023/06/11 02:47:29;;;;;;;6.40;4.60;;;;;;;17.52;100.00;99542.37;108626;1252;69054;-73
2023/06/11 02:49:57;;;;;;;;;;;;;;;17.45;100.00;99543.20;108678;1251;72422;-72
2023/06/11 02:52:25;;;;;;;5.20;4.70;;;;;;;17.44;100.00;99543.66;108683;1250;61490;-72
2023/06/11 02:54:53;;;;;;;5.40;4.70;;;;;;;17.43;100.00;99547.45;108665;1251;60355;-73
2023/06/11 02:57:20;;;;;;;5.40;4.50;;;;;;;17.43;100.00;99542.62;108622;1250;72725;-72
2023/06/11 02:59:48;;;;;;;4.80;4.30;;;;;;;17.39;100.00;99542.39;108670;1251;69080;-73
2023/06/11 03:02:16;;;;;;;5.10;4.10;;;;;;;17.30;100.00;99543.23;108447;1253;72438;-73
2023/06/11 03:04:44;;;;;;;;;;;;;;;17.30;100.00;99541.48;108647;1252;61400;-72
2023/06/11 03:07:12;;;;;;;5.30;4.00;;;;;;;17.22;100.00;99542.34;108483;1251;59734;-74
2023/06/11 03:09:39;;;;;;;6.80;4.20;;;;;;;17.20;100.00;99547.13;108600;1251;73664;-70
2023/06/11 03:12:08;;;;;;;;;;;;;;;17.20;100.00;99544.29;108603;1251;69150;-73
2023/06/11 03:14:37;;;;;;;6.70;4.30;;;;;;;17.05;100.00;99547.48;108398;1253;72326;-72
2023/06/11 03:17:05;;;;;;;6.40;4.20;;;;;;;17.00;100.00;99546.80;108468;1252;61532;-72
2023/06/11 03:19:32;;;;;;;4.20;3.80;;;;;;;16.97;100.00;99543.65;108535;1251;60077;-71
2023/06/11 03:22:01;;;;;;;4.30;3.90;;;;;;;17.02;100.00;99548.09;108464;1250;74523;-70
2023/06/11 03:24:28;;;;;;;4.50;4.10;;;;;;;17.03;100.00;99541.79;108512;1252;68200;-71
2023/06/11 03:27:01;;;;;;;4.80;4.00;;;;;;;17.04;100.00;99546.69;108456;1251;73342;-72
2023/06/11 03:29:29;;;;;;;3.80;3.40;;;;;;;17.06;100.00;99539.94;108552;1250;61377;-71
2023/06/11 03:31:57;;;;;;;9.20;3.80;;;;;;;17.09;100.00;99544.52;108501;1251;60140;-70
2023/06/11 03:34:25;;;;;;;4.00;3.60;;;;;;;17.07;100.00;99542.73;108479;1250;74166;-72
2023/06/11 03:36:53;;;;;;;7.80;3.30;;;;;;;17.10;100.00;99541.45;108343;1251;69375;-70
2023/06/11 03:39:22;;;;;;;6.70;3.50;;;;;;;17.16;100.00;99538.05;108261;1253;72905;-70
2023/06/11 03:41:50;;;;;;;4.80;3.60;;;;;;;17.20;100.00;99541.67;108310;1251;61367;-70
2023/06/11 03:44:19;;;;;;;6.50;3.40;;;;;;;17.21;100.00;99538.91;108248;1250;59860;-70
2023/06/11 03:46:47;;;;;;;4.40;3.40;;;;;;;17.21;100.00;99540.18;108587;1252;72602;-70
2023/06/11 03:49:15;;;;;;;3.80;3.40;;;;;;;17.19;100.00;99541.49;108380;1252;69859;-70
2023/06/11 03:51:43;;;;;;;7.30;3.90;;;;;;;17.19;100.00;99539.64;108597;1252;73396;-69
2023/06/11 03:54:11;;;;;;;3.80;3.50;;;;;;;17.20;100.00;99538.60;108427;1252;61788;-70
2023/06/11 03:56:38;;;;;;;6.60;3.50;;;;;;;17.21;100.00;99538.42;108309;1252;60807;-70
2023/06/11 03:59:07;;;;;;;5.80;3.80;;;;;;;17.19;100.00;99533.22;108332;1251;73756;-72
2023/06/11 04:01:35;;;;;;;4.20;3.10;;;;;;;17.16;100.00;99532.92;108406;1255;69178;-71
2023/06/11 04:04:03;;;;;;;5.30;3.10;;;;;;;17.08;100.00;99533.27;108156;1253;72205;-73
2023/06/11 04:06:40;;;;;;;9.80;3.20;;;;;;;17.04;100.00;99534.45;108155;1252;301008;-73
2023/06/11 04:09:59;;;;;;;3.40;3.20;;;;;;;16.75;100.00;99533.96;101758;1291;601196;-71
2023/06/11 04:12:29;;;;;;;4.10;3.70;;;;;;;16.99;100.00;99531.66;103667;1272;61506;-70
2023/06/11 04:14:56;;;;;;;7.20;3.50;;;;;;;16.97;100.00;99537.41;103637;1271;59378;-67
2023/06/11 04:17:24;;;;;;;3.60;3.30;;;;;;;16.93;100.00;99530.59;103706;1274;72453;-66
2023/06/11 04:19:52;;;;;;;6.70;3.30;;;;;;;16.91;100.00;99534.83;103832;1279;69765;-66
2023/06/11 04:22:21;;;;;;;4.80;3.30;;;;;;;16.84;100.00;99545.78;103999;1270;72606;-68
2023/06/11 04:24:48;;;;;;;9.10;3.40;;;;;;;16.87;100.00;99547.20;103761;1267;172001;-68
2023/06/11 04:27:16;;;;;;;10.00;3.50;;;;;;;16.85;100.00;99548.52;104022;1265;60722;-69
2023/06/11 04:29:44;;;;;;;9.50;3.40;;;;;;;16.88;100.00;99554.49;104143;1273;72950;-68
2023/06/11 04:32:16;;;;;;;3.10;2.90;;;;;;;16.90;100.00;99552.23;106612;1260;69085;-70
2023/06/11 04:34:48;;;;;;;3.30;3.00;;;;;;;16.89;100.00;99559.45;105792;1261;71417;-71
2023/06/11 04:37:16;;;;;;;4.40;3.20;;;;;;;16.88;100.00;99561.94;104337;1263;61781;-68
2023/06/11 04:39:45;;;;;;;4.20;2.70;;;;;;;16.87;100.00;99559.36;104455;1261;59791;-69
2023/06/11 04:42:16;;;;;;;3.20;3.00;;;;;;;16.82;100.00;99567.16;104472;1265;73283;-69
2023/06/11 04:44:47;;;;;;;3.00;2.70;;;;;;;16.74;100.00;99572.09;104222;1265;68051;-68
2023/06/11 04:47:16;;;;;;;3.80;2.90;;;;;;;16.67;100.00;99578.08;103928;1266;72860;-67
2023/06/11 04:49:44;;;;;;;3.40;3.10;;;;;;;16.68;100.00;99575.16;103955;1265;61535;-69
2023/06/11 04:52:15;;;;;;;5.30;3.10;;;;;;;16.66;100.00;99577.24;103928;1266;59657;-69
2023/06/11 04:54:45;;;;;;;4.20;2.70;;;;;;;16.70;100.00;99575.36;104005;1265;72758;-70
2023/06/11 04:57:13;;;;;;;3.50;2.70;;;;;;;16.73;100.00;99576.92;103949;1264;69295;-71
2023/06/11 04:59:42;;;;;;;4.30;3.10;;;;;;;16.70;100.00;99576.29;104009;1264;71189;-70
2023/06/11 05:02:10;;;;;;;6.70;2.80;;;;;;;16.71;100.00;99581.16;104005;1266;62341;-71
2023/06/11 05:04:39;;;;;;;3.40;2.40;;;;;;;16.75;100.00;99581.27;104003;1266;61395;-70
2023/06/11 05:07:08;;;;;;;3.50;2.50;;;;;;;16.74;100.00;99585.19;103888;1273;72158;-70
2023/06/11 05:09:39;;;;;;;4.60;2.30;;;;;;;16.76;100.00;99587.04;103964;1260;69760;-70
2023/06/11 05:12:11;;;;;;;5.20;2.40;;;;;;;16.68;100.00;99586.50;103960;1264;72853;-69
2023/06/11 05:14:39;;;;;;;4.30;2.50;;;;;;;16.70;100.00;99585.98;103960;1266;60630;-71
2023/06/11 05:17:07;;;;;;;6.10;2.50;;;;;;;16.75;100.00;99588.70;103880;1265;59765;-70
2023/06/11 05:19:35;;;;;;;3.30;2.20;;;;;;;16.85;100.00;99584.50;104049;1263;73293;-69
2023/06/11 05:22:03;;;;;;;2.60;2.40;;;;;;;16.85;100.00;99581.30;103889;1266;69120;-67
2023/06/11 05:24:31;;;;;;;4.70;2.70;;;;;;;16.84;100.00;99582.78;103965;1263;72952;-69
2023/06/11 05:27:01;;;;;;;5.60;2.30;;;;;;;16.87;100.00;99588.08;103964;1261;61677;-68
2023/06/11 05:29:31;;;;;;;2.70;2.40;;;;;;;16.88;100.00;99591.20;104006;1265;59671;-69
2023/06/11 05:32:00;;;;;;;4.10;2.60;;;;;;;16.89;100.00;99594.80;105608;1260;73762;-70
2023/06/11 05:34:30;;;;;;;4.50;2.30;;;;;;;16.90;100.00;99596.18;107314;1265;69220;-70
2023/06/11 05:37:01;;;;;;;5.40;2.60;;;;;;;16.89;100.00;99595.73;107513;1258;74097;-70
2023/06/11 05:39:29;;;;;;;3.50;2.60;;;;;;;16.88;100.00;99599.47;107398;1263;61386;-71
2023/06/11 05:41:57;;;;;;;3.30;2.50;;;;;;;16.88;100.00;99599.11;105584;1265;60104;-72
2023/06/11 05:44:25;;;;;;;5.60;2.50;;;;;;;16.90;100.00;99602.91;104363;1264;73376;-66
2023/06/11 05:46:53;;;;;;;6.50;3.10;;;;;;;16.87;100.00;99602.52;104163;1273;69030;-67
2023/06/11 05:49:22;;;;;;;5.70;2.60;;;;;;;16.86;100.00;99600.90;104480;1255;72912;-70
2023/06/11 05:51:50;;;;;;;8.00;2.90;;;;;;;16.80;100.00;99603.56;104368;1267;61786;-70
2023/06/11 05:54:17;;;;;;;6.20;2.90;;;;;;;16.77;100.00;99606.80;104563;1260;59682;-68
2023/06/11 05:56:45;;;;;;;;;;;;;;;16.69;100.00;99601.33;104441;1271;72814;-68
2023/06/11 05:59:14;;;;;;;8.10;2.50;;;;;;;16.68;100.00;99604.73;104418;1258;69087;-69
2023/06/11 06:01:45;;;;;;;;;;;;;;;16.63;100.00;99606.83;104412;1257;72904;-68
2023/06/11 06:04:15;;;;;;;7.50;2.90;;;;;;;16.58;100.00;99606.33;104402;1260;62320;-68
2023/06/11 06:06:44;;;;;;;4.20;2.70;;;;;;;16.56;100.00;99611.55;104523;1257;59723;-68
2023/06/11 06:09:13;;;;;;;3.40;2.40;;;;;;;16.61;100.00;99617.27;104425;1270;72765;-68
2023/06/11 06:11:41;;;;;;;8.60;2.40;;;;;;;16.65;100.00;99618.38;104410;1259;70265;-67
2023/06/11 06:14:08;;;;;;;10.00;2.70;;;;;;;16.67;100.00;99621.77;104399;1267;72539;-69
2023/06/11 06:16:36;;;;;;;3.50;3.10;;;;;;;16.66;100.00;99622.07;104337;1257;60976;-68
2023/06/11 06:19:05;;;;;;;3.20;2.80;;;;;;;16.60;100.00;99625.05;104290;1261;60084;-67
2023/06/11 06:21:33;;;;;;;2.60;2.20;;;;;;;16.59;100.00;99626.41;104342;1266;73550;-68
2023/06/11 06:24:02;;;;;;;2.90;2.30;;;;;;;16.63;100.00;99625.98;104456;1260;69112;-68
2023/06/11 06:26:30;;;;;;;5.70;2.30;;;;;;;16.65;100.00;99621.59;104410;1257;72511;-69
2023/06/11 06:28:58;;;;;;;3.40;3.00;;;;;;;16.68;100.00;99620.67;104454;1256;61780;-68
2023/06/11 06:31:27;;;;;;;4.60;2.40;;;;;;;16.63;100.00;99620.30;105188;1251;59775;-70
2023/06/11 06:33:55;;;;;;;2.80;2.20;;;;;;;16.59;100.00;99624.27;108372;1257;73698;-72
2023/06/11 06:36:24;;;;;;;2.80;2.40;;;;;;;16.52;100.00;99626.00;106080;1257;70051;-70
2023/06/11 06:38:51;;;;;;;4.20;2.80;;;;;;;16.47;100.00;99628.29;104669;1256;72322;-68
2023/06/11 06:41:20;;;;;;;5.70;2.40;;;;;;;16.41;100.00;99629.95;104908;1259;61415;-69
2023/06/11 06:43:48;;;;;;;7.40;2.60;;;;;;;16.41;100.00;99627.98;105011;1251;59691;-68
2023/06/11 06:46:19;;;;;;;6.70;2.30;;;;;;;16.35;100.00;99634.20;104801;1250;72802;-70
2023/06/11 06:48:50;;;;;;;5.10;2.30;;;;;;;16.29;100.00;99635.85;104348;1251;70320;-67
2023/06/11 06:51:20;;;;;;;5.00;1.90;;;;;;;16.28;100.00;99631.68;104579;1258;72861;-67
2023/06/11 06:53:50;;;;;;;5.00;2.10;;;;;;;16.27;100.00;99636.17;104387;1260;61556;-68
2023/06/11 06:56:18;;;;;;;4.20;2.20;;;;;;;16.23;100.00;99639.77;104482;1257;60685;-67
2023/06/11 06:58:46;;;;;;;;;;;;;;;16.16;100.00;99646.23;104480;1267;72920;-69
2023/06/11 07:01:13;;;;;;;;;;;;;;;16.05;100.00;99651.75;104481;1257;69180;-69
2023/06/11 07:03:42;;;;;;;6.00;2.30;;;;;;;15.97;100.00;99653.30;104540;1251;72331;-70
2023/06/11 07:06:09;;;;;;;;;;;;;;;15.90;100.00;99652.67;104430;1258;61392;-70
2023/06/11 07:08:38;;;;;;;1.90;1.80;;;;;;;15.79;100.00;99656.23;104660;1259;59810;-67
2023/06/11 07:11:06;;;;;;;;;;;;;;;15.72;100.00;99653.35;104485;1257;73683;-66
2023/06/11 07:13:43;;;;;;;2.30;1.90;;;;;;;15.65;100.00;99649.02;104564;1259;69537;-68
2023/06/11 07:16:12;;;;;;;6.00;2.30;;;;;;;15.57;100.00;99648.77;104475;1260;72636;-67
2023/06/11 07:18:43;;;;;;;3.40;2.10;;;;;;;15.53;100.00;99652.92;104302;1257;62108;-61
2023/06/11 07:21:12;;;;;;;2.30;1.90;;;;;;;15.51;100.00;99656.05;104534;1256;60686;-69
2023/06/11 07:23:41;;;;;;;3.10;2.10;;;;;;;15.45;100.00;99658.03;104722;1250;73038;-70
2023/06/11 07:26:13;;;;;;;5.50;1.70;;;;;;;15.47;100.00;99659.48;104547;1257;68280;-67
2023/06/11 07:28:41;;;;;;;3.40;2.00;;;;;;;15.50;100.00;99656.10;104889;1256;72208;-69
2023/06/11 07:31:10;;;;;;;3.50;2.10;;;;;;;15.53;100.00;99661.38;104869;1266;61541;-70
2023/06/11 07:33:38;;;;;;;4.30;2.10;;;;;;;15.54;100.00;99662.05;104417;1259;60557;-66
2023/06/11 07:36:06;;;;;;;3.80;2.00;;;;;;;15.51;100.00;99663.99;104418;1275;72841;-67
2023/06/11 07:38:34;;;;;;;2.90;1.80;;;;;;;15.45;100.00;99662.08;104839;1260;70017;-66
2023/06/11 07:41:03;;;;;;;3.00;1.80;;;;;;;15.48;100.00;99670.39;104517;1261;72529;-71
2023/06/11 07:43:30;;;;;;;2.40;1.90;;;;;;;15.52;100.00;99669.95;104386;1257;61392;-67
2023/06/11 07:45:58;;;;;;;;;;;;;;;15.60;100.00;99673.33;104604;1254;59664;-68
2023/06/11 07:48:26;;;;;;;3.60;2.40;;;;;;;15.59;100.00;99673.37;104578;1256;73379;-67
2023/06/11 07:50:55;;;;;;;;;;;;;;;15.55;100.00;99670.05;104464;1266;69069;-67
2023/06/11 07:53:24;;;;;;;2.80;2.20;;;;;;;15.59;100.00;99679.04;104832;1257;73323;-66
2023/06/11 07:55:55;;;;;;;1.80;1.70;;;;;;;15.57;100.00;99677.91;104526;1254;61749;-67
2023/06/11 07:58:23;;;;;;;5.10;2.00;;;;;;;15.56;100.00;99680.30;104444;1251;60791;-68
2023/06/11 08:00:51;;;;;;;21.80;3.40;;;;;;;15.61;100.00;99673.98;104818;1257;73028;-67
2023/06/11 08:03:19;;;;;;;5.10;2.00;;;;;;;15.64;100.00;99672.17;104543;1255;69447;-66
2023/06/11 08:05:47;;;;;;;6.20;2.60;;;;;;;15.65;100.00;99672.67;104363;1252;72543;-65
2023/06/11 08:08:14;;;;;;;;;;;;;;;15.70;100.00;99666.31;104675;1251;61465;-65
2023/06/11 08:10:45;;;;;;;4.90;2.40;;;;;;;15.70;100.00;99662.84;104589;1256;59738;-66
2023/06/11 08:13:14;;;;;;;5.20;2.60;;;;;;;15.67;100.00;99672.58;104477;1251;72876;-70
2023/06/11 08:15:41;;;;;;;5.20;2.60;;;;;;;15.55;100.00;99668.51;104670;1267;69511;-64
2023/06/11 08:18:09;;;;;;;2.40;2.30;;;;;;;15.55;100.00;99667.42;104586;1257;72526;-63
2023/06/11 08:20:37;;;;;;;;;;;;;;;15.60;100.00;99662.89;104520;1254;62489;-63
2023/06/11 08:23:05;;;;;;;4.90;2.50;;;;;;;15.61;100.00;99664.63;104608;1257;59802;-65
2023/06/11 08:25:32;;;;;;;3.90;1.90;;;;;;;15.63;100.00;99669.60;104457;1256;73600;-64
2023/06/11 08:28:00;;;;;;;9.90;2.30;;;;;;;15.69;100.00;99662.31;104571;1257;69133;-64
2023/06/11 08:30:28;;;;;;;5.30;2.30;;;;;;;15.76;100.00;99655.55;104584;1258;72291;-64
2023/06/11 08:32:56;;;;;;;4.60;1.90;;;;;;;15.91;100.00;99655.83;104546;1254;62051;-63
2023/06/11 08:35:24;;;;;;;2.70;2.00;;;;;;;16.04;100.00;99652.02;107880;1253;60339;-65
2023/06/11 08:37:51;;;;;;;2.80;2.00;;;;;;;16.11;100.00;99643.55;106288;1254;73704;-65
2023/06/11 08:40:20;;;;;;;2.90;2.00;;;;;;;16.11;100.00;99644.98;104972;1254;70120;-64
2023/06/11 08:42:50;;;;;;;2.20;2.00;;;;;;;16.18;100.00;99643.48;105013;1254;73360;-64
2023/06/11 08:45:18;;;;;;;5.40;2.40;;;;;;;16.19;100.00;99647.10;104700;1260;60462;-63
2023/06/11 08:47:52;;;;;;;4.90;2.10;;;;;;;16.21;100.00;99649.64;105407;1254;60605;-62
2023/06/11 08:50:23;;;;;;;3.80;2.00;;;;;;;16.23;100.00;99652.17;104954;1262;73665;-65
2023/06/11 08:52:52;;;;;;;3.60;2.00;;;;;;;16.24;100.00;99646.23;104904;1254;71673;-63
2023/06/11 08:55:19;;;;;;;4.50;2.40;;;;;;;16.23;100.00;99641.88;104712;1257;72444;-64
2023/06/11 08:57:49;;;;;;;3.90;1.90;;;;;;;16.20;100.00;99646.71;104632;1257;61530;-64
2023/06/11 09:00:17;;;;;;;4.00;1.90;;;;;;;16.22;100.00;99644.25;104577;1257;60524;-66
2023/06/11 09:02:45;;;;;;;2.50;1.80;;;;;;;16.23;100.00;99640.31;104909;1254;74042;-65
2023/06/11 09:05:13;;;;;;;6.60;1.90;;;;;;;16.29;100.00;99646.29;104505;1259;70376;-66
2023/06/11 09:07:48;;;;;;;;;;;;;;;16.39;100.00;99645.11;104668;1258;73338;-63
2023/06/11 09:10:16;;;;;;;3.70;2.20;;;;;;;16.50;100.00;99653.37;104336;1255;61803;-64
2023/06/11 09:12:44;;;;;;;4.60;2.00;;;;;;;16.52;100.00;99653.73;104293;1254;60513;-66
2023/06/11 09:15:12;;;;;;;2.40;1.90;;;;;;;16.48;100.00;99652.95;104456;1270;73632;-66
2023/06/11 09:17:41;;;;;;;5.30;1.80;;;;;;;16.55;100.00;99651.80;104475;1256;69132;-66
2023/06/11 09:20:11;;;;;;;4.10;2.20;;;;;;;16.54;100.00;99651.38;104566;1258;72434;-66
2023/06/11 09:22:43;;;;;;;3.20;2.00;;;;;;;16.52;100.00;99659.81;104453;1251;61755;-65
2023/06/11 09:25:19;;;;;;;2.30;2.00;;;;;;;16.43;100.00;99663.91;104812;1251;60557;-65
2023/06/11 09:27:47;;;;;;;2.40;2.20;;;;;;;16.33;100.00;99661.71;104679;1264;72849;-65
2023/06/11 09:30:17;;;;;;;3.90;2.10;;;;;;;16.29;100.00;99667.65;104546;1269;69337;-63
2023/06/11 09:32:46;;;;;;;4.90;1.90;;;;;;;16.22;100.00;99665.30;104587;1256;72040;-64
2023/06/11 09:35:14;;;;;;;4.30;2.10;;;;;;;16.14;100.00;99670.61;104458;1267;61395;-64
2023/06/11 09:37:46;;;;;;;6.00;2.40;;;;;;;16.10;100.00;99677.05;104755;1253;60528;-62
2023/06/11 09:40:20;;;;;;;2.80;1.90;;;;;;;16.09;100.00;99670.73;104729;1251;72924;-63
2023/06/11 09:42:49;;;;;;;2.50;2.30;;;;;;;16.06;100.00;99675.58;104364;1257;69715;-62
2023/06/11 09:45:20;;;;;;;2.50;2.00;;;;;;;15.99;100.00;99671.57;104466;1267;72451;-63
2023/06/11 09:47:50;;;;;;;2.30;2.00;;;;;;;15.95;100.00;99671.99;104739;1251;61885;-63
2023/06/11 09:50:21;;;;;;;2.30;2.10;;;;;;;15.98;100.00;99668.98;104627;1251;60518;-63
2023/06/11 09:52:49;;;;;;;3.20;2.10;;;;;;;16.02;100.00;99667.71;104712;1253;74107;-63
2023/06/11 09:55:17;;;;;;;2.70;2.40;;;;;;;16.05;100.00;99669.40;104759;1267;69529;-64
2023/06/11 09:57:45;;;;;;;;;;;;;;;16.05;100.00;99668.52;104883;1254;72313;-65
2023/06/11 10:00:13;;;;;;;;;;;;;;;16.01;100.00;99666.88;104528;1254;61519;-63
2023/06/11 10:02:42;;;;;;;1.70;1.60;;;;;;;15.95;100.00;99671.15;104437;1254;60540;-64
2023/06/11 10:05:11;;;;;;;3.60;1.70;;;;;;;15.92;100.00;99671.66;104503;1254;73580;-63
2023/06/11 10:07:46;;;;;;;3.50;1.80;;;;;;;15.89;100.00;99672.77;104951;1254;70038;-67
2023/06/11 10:10:17;;;;;;;3.00;1.60;;;;;;;15.77;100.00;99672.48;104716;1256;72949;-64
2023/06/11 10:12:49;;;;;;;1.70;1.40;;;;;;;15.72;100.00;99669.94;104403;1257;62345;-64
2023/06/11 10:15:20;;;;;;;2.10;1.40;;;;;;;15.69;100.00;99669.59;104500;1257;60593;-65
2023/06/11 10:17:49;;;;;;;10.70;2.10;;;;;;;15.70;100.00;99674.98;104578;1269;74665;-64
2023/06/11 10:20:18;;;;;;;4.70;1.80;;;;;;;15.72;100.00;99671.31;105053;1254;69617;-63
2023/06/11 10:22:45;;;;;;;7.20;1.80;;;;;;;15.75;100.00;99675.76;104606;1253;71095;-65
2023/06/11 10:25:13;;;;;;;4.80;1.90;;;;;;;15.78;100.00;99680.73;104602;1254;61366;-65
2023/06/11 10:27:42;;;;;;;4.70;2.20;;;;;;;15.83;100.00;99677.89;104424;1260;60528;-64
2023/06/11 10:30:10;;;;;;;2.50;1.80;;;;;;;15.85;100.00;99679.55;104548;1262;72395;-66
2023/06/11 10:32:53;;;;;;;2.50;2.30;;;;;;;15.84;100.00;99684.25;104454;1265;69751;-70
2023/06/11 10:35:23;;;;;;;2.80;2.00;;;;;;;15.76;100.00;99690.00;107295;1251;73005;-64
2023/06/11 10:38:02;;;;;;;2.10;2.00;;;;;;;15.62;100.00;99692.46;108206;1253;60361;-67
2023/06/11 10:40:34;;;;;;;6.00;1.70;;;;;;;15.65;100.00;99690.20;104864;1253;60479;-66
2023/06/11 10:43:12;;;;;;;2.70;2.00;;;;;;;15.64;100.00;99693.20;104892;1253;72647;-64
2023/06/11 10:45:40;;;;;;;2.00;1.80;;;;;;;15.64;100.00;99691.45;106768;1253;69048;-64
2023/06/11 10:48:07;;;;;;;2.30;1.70;;;;;;;15.68;100.00;99693.35;106113;1254;72505;-67
2023/06/11 10:50:35;;;;;;;;;;;;;;;15.67;100.00;99695.48;105641;1251;60672;-66
2023/06/11 10:53:12;;;;;;;3.40;1.80;;;;;;;15.61;100.00;99701.00;104386;1261;60619;-67
2023/06/11 10:55:42;;;;;;;2.20;2.00;;;;;;;15.52;100.00;99703.30;104368;1254;73604;-66
2023/06/11 10:58:23;;;;;;;2.40;2.20;;;;;;;15.53;100.00;99705.02;104423;1258;69050;-68
2023/06/11 11:00:52;;;;;;;8.00;2.10;;;;;;;15.48;100.00;99697.02;104516;1258;72907;-67
2023/06/11 11:03:24;;;;;;;6.50;2.00;;;;;;;15.37;100.00;99697.70;104559;1253;62565;-63
2023/06/11 11:05:53;;;;;;;3.60;2.00;;;;;;;15.31;100.00;99702.01;104824;1255;60742;-63
2023/06/11 11:08:24;;;;;;;3.70;2.70;;;;;;;15.31;100.00;99698.08;104641;1259;72664;-65
2023/06/11 11:10:56;;;;;;;2.90;2.30;;;;;;;15.33;100.00;99696.39;104434;1260;70092;-64
2023/06/11 11:13:24;;;;;;;5.00;2.20;;;;;;;15.25;100.00;99705.35;104427;1253;72464;-65
2023/06/11 11:15:52;;;;;;;3.80;2.30;;;;;;;15.18;100.00;99706.81;104275;1257;60925;-64
2023/06/11 11:18:19;;;;;;;3.60;2.40;;;;;;;15.17;100.00;99713.91;104637;1256;60201;-65
2023/06/11 11:20:47;;;;;;;;;;;;;;;15.16;100.00;99713.67;104457;1260;73589;-65
2023/06/11 11:23:15;;;;;;;;;;;;;;;14.99;100.00;99714.88;104787;1253;69247;-64
2023/06/11 11:25:43;;;;;;;3.20;1.90;;;;;;;14.91;100.00;99720.44;104854;1257;72495;-65
2023/06/11 11:28:12;;;;;;;4.70;2.30;;;;;;;14.90;100.00;99719.11;104364;1274;62496;-66
2023/06/11 11:30:40;;;;;;;2.60;2.20;;;;;;;14.87;100.00;99725.27;108440;1251;60095;-68
2023/06/11 11:33:07;;;;;;;2.30;2.10;;;;;;;14.87;100.00;99725.64;108601;1251;74184;-66